createdAt,value
2022-11-24T00:00:21.924Z,97048.34
2022-11-24T00:03:28.862Z,97055.03
2022-11-24T00:06:38.018Z,97048.56
2022-11-24T00:09:45.176Z,97049.94
2022-11-24T00:12:51.174Z,97040.59
2022-11-24T00:16:09.169Z,97059.69
2022-11-24T00:19:19.553Z,97072.16
2022-11-24T00:22:26.999Z,97071.78
2022-11-24T00:25:33.141Z,97073.28
2022-11-24T00:28:42.339Z,97069.72
2022-11-24T00:31:51.341Z,97079.66
2022-11-24T00:34:58.318Z,97081.84
2022-11-24T00:38:04.301Z,97086.94
2022-11-24T00:41:11.684Z,97091.28
2022-11-24T00:44:17.680Z,97092.47
2022-11-24T00:47:29.089Z,97091.81
2022-11-24T00:50:35.113Z,97093.22
2022-11-24T00:53:42.628Z,97101.41
2022-11-24T00:56:48.574Z,97098.19
2022-11-24T00:59:55.431Z,97097.06
2022-11-24T01:03:04.115Z,97094.50
2022-11-24T01:06:13.972Z,97104.03
2022-11-24T01:09:19.955Z,97101.28
2022-11-24T01:12:26.832Z,97108.22
2022-11-24T01:15:33.177Z,97099.91
2022-11-24T01:18:42.608Z,97109.34
2022-11-24T01:21:49.431Z,97109.81
2022-11-24T01:24:56.491Z,97104.34
2022-11-24T01:28:02.439Z,97107.72
2022-11-24T01:31:11.638Z,97114.47
2022-11-24T01:34:20.496Z,97121.06
2022-11-24T01:37:27.310Z,97120.16
2022-11-24T01:40:33.259Z,97125.13
2022-11-24T01:43:41.178Z,97111.97
2022-11-24T01:46:55.593Z,97120.00
2022-11-24T01:50:08.986Z,97121.34
2022-11-24T01:53:17.889Z,97117.59
2022-11-24T01:56:24.914Z,97114.53
2022-11-24T01:59:32.243Z,97116.47
2022-11-24T02:02:39.760Z,97129.44
2022-11-24T02:05:58.949Z,97123.38
2022-11-24T02:09:16.470Z,97126.06
2022-11-24T02:12:22.850Z,97121.84
2022-11-24T02:15:31.112Z,97126.81
2022-11-24T02:18:37.918Z,97123.50
2022-11-24T02:21:47.693Z,97125.31
2022-11-24T02:25:05.642Z,97133.19
2022-11-24T02:28:21.891Z,97124.94
2022-11-24T02:31:28.176Z,97118.09
2022-11-24T02:34:35.310Z,97121.09
2022-11-24T02:37:41.766Z,97120.00
2022-11-24T02:40:52.806Z,97124.94
2022-11-24T02:44:05.302Z,97120.69
2022-11-24T02:47:15.333Z,97123.44
2022-11-24T02:50:21.511Z,97129.69
2022-11-24T02:53:28.284Z,97123.06
2022-11-24T02:56:34.282Z,97126.88
2022-11-24T02:59:43.722Z,97121.84
2022-11-24T03:02:49.853Z,97111.22
2022-11-24T03:05:56.973Z,97128.66
2022-11-24T03:09:03.061Z,97120.47
2022-11-24T03:12:10.763Z,97115.75
2022-11-24T03:15:19.616Z,97125.59
2022-11-24T03:18:26.414Z,97122.41
2022-11-24T03:21:32.701Z,97124.41
2022-11-24T03:24:39.599Z,97130.34
2022-11-24T03:27:45.617Z,97133.34
2022-11-24T03:30:55.028Z,97138.50
2022-11-24T03:34:01.181Z,97142.13
2022-11-24T03:37:09.246Z,97138.59
2022-11-24T03:40:16.023Z,97141.13
2022-11-24T03:43:23.233Z,97144.44
2022-11-24T03:46:31.876Z,97140.94
2022-11-24T03:49:38.586Z,97151.59
2022-11-24T03:52:44.547Z,97158.28
2022-11-24T03:55:51.360Z,97161.19
2022-11-24T03:58:57.396Z,97153.38
2022-11-24T04:02:06.873Z,97152.06
2022-11-24T04:05:13.220Z,97161.81
2022-11-24T04:08:21.288Z,97162.53
2022-11-24T04:11:39.698Z,97161.25
2022-11-24T04:14:46.409Z,97154.13
2022-11-24T04:17:57.608Z,97153.63
2022-11-24T04:21:04.602Z,97152.63
2022-11-24T04:24:10.907Z,97160.81
2022-11-24T04:27:18.289Z,97161.63
2022-11-24T04:30:26.586Z,97169.75
2022-11-24T04:33:36.774Z,97168.19
2022-11-24T04:36:42.832Z,97181.22
2022-11-24T04:39:49.613Z,97181.59
2022-11-24T04:42:59.947Z,97178.22
2022-11-24T04:46:06.834Z,97185.66
2022-11-24T04:49:15.539Z,97183.25
2022-11-24T04:52:24.955Z,97189.56
2022-11-24T04:55:30.945Z,97193.47
2022-11-24T04:58:37.753Z,97196.53
2022-11-24T05:01:44.219Z,97190.31
2022-11-24T05:04:54.222Z,97202.72
2022-11-24T05:08:02.545Z,97207.34
2022-11-24T05:11:10.927Z,97204.50
2022-11-24T05:14:16.811Z,97214.94
2022-11-24T05:17:23.745Z,97214.25
2022-11-24T05:20:32.242Z,97204.97
2022-11-24T05:23:39.692Z,97209.53
2022-11-24T05:26:45.636Z,97207.34
2022-11-24T05:29:52.655Z,97207.66
2022-11-24T05:32:58.607Z,97200.53
2022-11-24T05:36:30.816Z,97202.25
2022-11-24T05:39:37.863Z,97211.94
2022-11-24T05:42:47.554Z,97222.81
2022-11-24T05:45:54.136Z,97211.56
2022-11-24T05:49:01.004Z,97218.09
2022-11-24T05:52:09.641Z,97225.75
2022-11-24T05:55:19.718Z,97233.09
2022-11-24T05:58:25.683Z,97230.97
2022-11-24T06:01:32.435Z,97241.91
2022-11-24T06:04:38.526Z,97243.22
2022-11-24T06:07:48.123Z,97243.50
2022-11-24T06:10:54.122Z,97250.19
2022-11-24T06:14:00.888Z,97255.31
2022-11-24T06:17:08.075Z,97256.41
2022-11-24T06:20:15.415Z,97268.50
2022-11-24T06:23:23.840Z,97264.38
2022-11-24T06:26:30.585Z,97270.81
2022-11-24T06:29:36.392Z,97277.13
2022-11-24T06:32:49.399Z,97274.38
2022-11-24T06:35:55.922Z,97278.03
2022-11-24T06:39:08.847Z,97280.19
2022-11-24T06:42:18.793Z,97285.25
2022-11-24T06:45:25.615Z,97285.69
2022-11-24T06:48:32.747Z,97286.50
2022-11-24T06:51:39.809Z,97288.03
2022-11-24T06:54:48.256Z,97296.13
2022-11-24T06:57:54.986Z,97294.69
2022-11-24T07:01:01.089Z,97294.69
2022-11-24T07:04:08.200Z,97293.09
2022-11-24T07:07:14.214Z,97296.59
2022-11-24T07:10:23.673Z,97295.59
2022-11-24T07:13:29.526Z,97302.97
2022-11-24T07:16:37.361Z,97307.47
2022-11-24T07:19:43.286Z,97310.25
2022-11-24T07:22:50.193Z,97313.75
2022-11-24T07:26:02.392Z,97316.53
2022-11-24T07:29:13.320Z,97322.75
2022-11-24T07:32:19.252Z,97323.22
2022-11-24T07:35:26.738Z,97320.66
2022-11-24T07:38:33.997Z,97322.53
2022-11-24T07:41:43.333Z,97325.72
2022-11-24T07:44:49.447Z,97329.50
2022-11-24T07:47:56.184Z,97326.75
2022-11-24T07:51:03.531Z,97331.09
2022-11-24T07:54:10.836Z,97335.00
2022-11-24T07:57:19.312Z,97335.34
2022-11-24T08:00:27.342Z,97336.03
2022-11-24T08:03:33.257Z,97337.16
2022-11-24T08:06:44.663Z,97343.84
2022-11-24T08:09:53.360Z,97343.91
2022-11-24T08:13:06.283Z,97348.66
2022-11-24T08:16:16.302Z,97353.34
2022-11-24T08:19:24.672Z,97350.06
2022-11-24T08:22:30.644Z,97356.63
2022-11-24T08:25:37.353Z,97363.13
2022-11-24T08:28:47.007Z,97358.53
2022-11-24T08:31:53.767Z,97364.31
2022-11-24T08:35:13.224Z,97361.09
2022-11-24T08:38:20.548Z,97371.47
2022-11-24T08:41:27.931Z,97385.41
2022-11-24T08:44:37.400Z,97380.97
2022-11-24T08:47:43.449Z,97385.91
2022-11-24T08:50:50.218Z,97392.41
2022-11-24T08:53:58.870Z,97386.44
2022-11-24T08:57:05.634Z,97389.19
2022-11-24T09:00:22.331Z,97395.00
2022-11-24T09:03:29.664Z,97392.38
2022-11-24T09:06:35.546Z,97390.88
2022-11-24T09:09:42.264Z,97392.47
2022-11-24T09:12:49.330Z,97387.91
2022-11-24T09:15:59.579Z,97394.78
2022-11-24T09:19:09.539Z,97394.44
2022-11-24T09:22:16.270Z,97395.97
2022-11-24T09:25:23.788Z,97400.25
2022-11-24T09:28:30.789Z,97396.13
2022-11-24T09:31:42.167Z,97390.69
2022-11-24T09:34:48.976Z,97401.72
2022-11-24T09:37:54.842Z,97384.41
2022-11-24T09:41:41.219Z,97384.94
2022-11-24T09:45:26.327Z,97397.84
2022-11-24T09:48:53.605Z,97396.69
2022-11-24T09:52:04.488Z,97397.66
2022-11-24T09:55:37.934Z,97390.97
2022-11-24T09:58:51.450Z,97391.06
2022-11-24T10:01:58.743Z,97387.31
2022-11-24T10:05:09.851Z,97391.50
2022-11-24T10:08:48.032Z,97394.72
2022-11-24T10:12:16.150Z,97395.72
2022-11-24T10:15:45.205Z,97397.25
2022-11-24T10:19:16.077Z,97391.88
2022-11-24T10:22:48.709Z,97390.19
2022-11-24T10:26:01.222Z,97398.75
2022-11-24T10:29:29.290Z,97400.44
2022-11-24T10:32:47.065Z,97396.31
2022-11-24T10:36:05.207Z,97399.22
2022-11-24T10:39:26.792Z,97411.94
2022-11-24T10:42:37.557Z,97412.78
2022-11-24T10:45:44.504Z,97406.63
2022-11-24T10:49:00.153Z,97409.47
2022-11-24T10:52:16.312Z,97413.47
2022-11-24T10:55:25.775Z,97412.59
2022-11-24T10:58:37.623Z,97411.69
2022-11-24T11:01:44.934Z,97413.88
2022-11-24T11:04:50.865Z,97404.59
2022-11-24T11:08:20.891Z,97394.06
2022-11-24T11:11:32.983Z,97403.56
2022-11-24T11:14:39.786Z,97406.81
2022-11-24T11:17:50.559Z,97406.72
2022-11-24T11:21:02.090Z,97411.25
2022-11-24T11:24:19.479Z,97416.28
2022-11-24T11:27:30.962Z,97410.44
2022-11-24T11:34:23.739Z,97408.91
2022-11-24T11:37:37.406Z,97406.97
2022-11-24T11:40:45.707Z,97417.06
2022-11-24T11:44:14.984Z,97417.50
2022-11-24T11:47:32.311Z,97410.91
2022-11-24T11:54:39.253Z,97408.75
2022-11-24T11:58:04.122Z,97416.72
2022-11-24T12:01:41.445Z,97423.97
2022-11-24T12:04:56.854Z,97412.38
2022-11-24T12:08:43.952Z,97430.81
2022-11-24T12:12:28.711Z,97422.94
2022-11-24T12:15:45.512Z,97420.47
2022-11-24T12:19:18.795Z,97422.88
2022-11-24T12:22:41.816Z,97420.25
2022-11-24T12:26:01.842Z,97425.88
2022-11-24T12:29:48.495Z,97427.06
2022-11-24T12:33:20.260Z,97434.59
2022-11-24T12:36:55.332Z,97428.75
2022-11-24T12:40:16.231Z,97429.00
2022-11-24T12:43:35.778Z,97432.06
2022-11-24T12:46:59.450Z,97437.19
2022-11-24T12:50:17.095Z,97436.44
2022-11-24T12:53:31.594Z,97436.50
2022-11-24T12:56:48.413Z,97446.63
2022-11-24T13:00:09.022Z,97441.34
2022-11-24T13:03:35.353Z,97448.34
2022-11-24T13:06:56.382Z,97445.13
2022-11-24T13:14:08.164Z,97446.84
2022-11-24T13:21:00.353Z,97459.25
2022-11-24T13:24:26.084Z,97455.94
2022-11-24T13:27:46.514Z,97453.97
2022-11-24T13:31:13.662Z,97459.75
2022-11-24T13:34:57.597Z,97468.53
2022-11-24T13:38:05.564Z,97476.09
2022-11-24T13:41:28.293Z,97475.38
2022-11-24T13:44:55.399Z,97479.69
2022-11-24T13:48:01.327Z,97485.50
2022-11-24T13:51:27.362Z,97496.00
2022-11-24T13:54:34.266Z,97497.41
2022-11-24T13:57:46.158Z,97497.25
2022-11-24T14:01:15.993Z,97499.06
2022-11-24T14:04:30.993Z,97498.63
2022-11-24T14:07:38.099Z,97505.53
2022-11-24T14:10:46.457Z,97510.69
2022-11-24T14:13:52.440Z,97515.53
2022-11-24T14:17:23.568Z,97523.81
2022-11-24T14:20:31.433Z,97524.88
2022-11-24T14:23:44.511Z,97533.44
2022-11-24T14:26:51.143Z,97531.47
2022-11-24T14:30:01.235Z,97536.59
2022-11-24T14:33:16.195Z,97544.88
2022-11-24T14:36:23.020Z,97544.66
2022-11-24T14:39:33.289Z,97545.75
2022-11-24T14:42:41.190Z,97545.75
2022-11-24T14:45:54.156Z,97554.34
2022-11-24T14:49:04.452Z,97557.97
2022-11-24T14:52:19.780Z,97558.81
2022-11-24T14:55:31.680Z,97559.88
2022-11-24T14:58:42.252Z,97564.34
2022-11-24T15:01:49.756Z,97557.81
2022-11-24T15:05:04.900Z,97565.69
2022-11-24T15:08:18.621Z,97572.28
2022-11-24T15:11:24.983Z,97570.63
2022-11-24T15:14:53.200Z,97576.88
2022-11-24T15:18:02.720Z,97575.88
2022-11-24T15:21:18.967Z,97575.72
2022-11-24T15:24:25.301Z,97569.50
2022-11-24T15:27:32.767Z,97574.69
2022-11-24T15:30:41.339Z,97579.97
2022-11-24T15:33:48.275Z,97580.06
2022-11-24T15:36:56.836Z,97586.84
2022-11-24T15:40:03.706Z,97592.25
2022-11-24T15:43:31.263Z,97601.16
2022-11-24T15:46:40.644Z,97587.59
2022-11-24T15:49:46.730Z,97597.84
2022-11-24T15:52:56.365Z,97606.53
2022-11-24T15:56:05.395Z,97609.06
2022-11-24T15:59:21.212Z,97607.25
2022-11-24T16:02:27.542Z,97616.34
2022-11-24T16:05:36.226Z,97616.41
2022-11-24T16:08:44.857Z,97617.34
2022-11-24T16:11:51.725Z,97614.84
2022-11-24T16:14:57.697Z,97620.69
2022-11-24T16:18:04.878Z,97621.91
2022-11-24T16:21:13.446Z,97628.41
2022-11-24T16:24:22.984Z,97625.50
2022-11-24T16:27:29.111Z,97624.53
2022-11-24T16:30:35.911Z,97632.28
2022-11-24T16:33:44.910Z,97634.97
2022-11-24T16:36:52.144Z,97635.84
2022-11-24T16:40:02.674Z,97639.94
2022-11-24T16:43:09.625Z,97639.91
2022-11-24T16:46:22.829Z,97639.94
2022-11-24T16:49:29.726Z,97646.06
2022-11-24T16:52:35.767Z,97641.91
2022-11-24T16:55:45.451Z,97645.25
2022-11-24T16:58:51.643Z,97648.81
2022-11-24T17:01:59.312Z,97650.41
2022-11-24T17:05:05.956Z,97654.56
2022-11-24T17:08:12.914Z,97662.44
2022-11-24T17:11:24.704Z,97664.09
2022-11-24T17:14:31.835Z,97667.13
2022-11-24T17:17:55.158Z,97669.84
2022-11-24T17:21:09.717Z,97662.66
2022-11-24T17:24:18.292Z,97671.25
2022-11-24T17:27:27.683Z,97670.97
2022-11-24T17:30:33.780Z,97674.69
2022-11-24T17:33:40.982Z,97679.63
2022-11-24T17:36:47.300Z,97679.13
2022-11-24T17:40:20.315Z,97700.72
2022-11-24T17:43:22.882Z,97690.38
2022-11-24T17:46:32.912Z,97696.63
2022-11-24T17:49:39.049Z,97701.44
2022-11-24T17:52:45.918Z,97704.66
2022-11-24T17:55:52.033Z,97706.16
2022-11-24T17:59:03.454Z,97708.50
2022-11-24T18:02:09.809Z,97706.38
2022-11-24T18:05:17.019Z,97710.94
2022-11-24T18:08:24.472Z,97710.66
2022-11-24T18:11:33.836Z,97715.25
2022-11-24T18:14:42.600Z,97718.59
2022-11-24T18:17:51.232Z,97720.34
2022-11-24T18:20:58.522Z,97725.88
2022-11-24T18:24:05.659Z,97732.38
2022-11-24T18:27:11.862Z,97735.88
2022-11-24T18:30:21.889Z,97741.16
2022-11-24T18:33:28.111Z,97739.16
2022-11-24T18:36:36.547Z,97740.16
2022-11-24T18:39:43.858Z,97746.94
2022-11-24T18:42:50.980Z,97748.38
2022-11-24T18:46:00.428Z,97755.00
2022-11-24T18:49:10.782Z,97749.72
2022-11-24T18:52:16.950Z,97747.66
2022-11-24T18:55:24.036Z,97747.38
2022-11-24T18:58:32.924Z,97751.38
2022-11-24T19:01:43.114Z,97746.53
2022-11-24T19:04:49.509Z,97757.19
2022-11-24T19:07:56.583Z,97755.38
2022-11-24T19:11:03.766Z,97766.19
2022-11-24T19:14:16.022Z,97772.28
2022-11-24T19:17:24.776Z,97773.66
2022-11-24T19:20:32.043Z,97775.78
2022-11-24T19:23:38.009Z,97782.69
2022-11-24T19:26:45.608Z,97779.09
2022-11-24T19:29:51.688Z,97783.66
2022-11-24T19:33:01.259Z,97783.38
2022-11-24T19:36:14.396Z,97789.16
2022-11-24T19:39:22.077Z,97787.81
2022-11-24T19:42:28.663Z,97785.47
2022-11-24T19:45:35.746Z,97794.19
2022-11-24T19:48:47.429Z,97790.16
2022-11-24T19:52:00.242Z,97789.22
2022-11-24T19:55:07.690Z,97793.19
2022-11-24T19:58:14.700Z,97792.78
2022-11-24T20:01:25.058Z,97790.03
2022-11-24T20:04:38.614Z,97793.47
2022-11-24T20:07:44.798Z,97790.03
2022-11-24T20:10:51.992Z,97796.69
2022-11-24T20:13:59.264Z,97792.78
2022-11-24T20:17:06.926Z,97802.19
2022-11-24T20:20:16.729Z,97811.03
2022-11-24T20:23:23.720Z,97818.22
2022-11-24T20:26:34.328Z,97813.66
2022-11-24T20:29:46.623Z,97816.41
2022-11-24T20:32:53.018Z,97819.47
2022-11-24T20:36:07.823Z,97819.63
2022-11-24T20:39:19.435Z,97818.09
2022-11-24T20:42:27.267Z,97822.78
2022-11-24T20:45:33.673Z,97830.84
2022-11-24T20:48:42.211Z,97825.75
2022-11-24T20:51:54.768Z,97838.19
2022-11-24T20:55:04.127Z,97835.44
2022-11-24T20:58:10.119Z,97840.03
2022-11-24T21:01:20.686Z,97832.13
2022-11-24T21:04:29.814Z,97841.53
2022-11-24T21:07:57.632Z,97836.84
2022-11-24T21:11:04.042Z,97838.22
2022-11-24T21:14:12.640Z,97848.16
2022-11-24T21:17:19.410Z,97846.38
2022-11-24T21:20:28.017Z,97844.94
2022-11-24T21:23:37.228Z,97847.72
2022-11-24T21:26:47.765Z,97850.34
2022-11-24T21:29:53.836Z,97862.22
2022-11-24T21:33:00.744Z,97853.66
2022-11-24T21:36:09.069Z,97856.44
2022-11-24T21:39:19.288Z,97864.03
2022-11-24T21:42:25.331Z,97858.03
2022-11-24T21:45:32.556Z,97863.91
2022-11-24T21:48:40.650Z,97864.47
2022-11-24T21:51:47.555Z,97864.09
2022-11-24T21:54:56.206Z,97867.88
2022-11-24T21:58:03.031Z,97870.41
2022-11-24T22:01:11.759Z,97885.19
2022-11-24T22:04:18.884Z,97877.13
2022-11-24T22:07:24.828Z,97885.44
2022-11-24T22:10:34.189Z,97877.84
2022-11-24T22:13:40.964Z,97875.91
2022-11-24T22:16:48.041Z,97879.22
2022-11-24T22:19:54.136Z,97877.88
2022-11-24T22:23:01.018Z,97887.28
2022-11-24T22:26:14.709Z,97883.81
2022-11-24T22:29:21.522Z,97884.09
2022-11-24T22:32:30.031Z,97885.88
2022-11-24T22:35:37.023Z,97893.38
2022-11-24T22:38:44.089Z,97888.94
2022-11-24T22:41:53.632Z,97898.00
2022-11-24T22:44:59.589Z,97895.06
2022-11-24T22:48:06.461Z,97894.81
2022-11-24T22:51:15.742Z,97896.69
2022-11-24T22:54:22.715Z,97900.97
2022-11-24T22:57:31.309Z,97908.06
2022-11-24T23:00:38.124Z,97902.75
2022-11-24T23:03:45.504Z,97899.50
2022-11-24T23:06:52.347Z,97896.09
2022-11-24T23:09:58.269Z,97899.06
2022-11-24T23:13:07.749Z,97900.88
2022-11-24T23:16:18.084Z,97902.56
2022-11-24T23:19:24.967Z,97905.34
2022-11-24T23:22:30.860Z,97896.72
2022-11-24T23:25:37.695Z,97900.53
2022-11-24T23:28:46.547Z,97905.63
2022-11-24T23:31:53.402Z,97900.00
2022-11-24T23:34:59.346Z,97906.94
2022-11-24T23:38:07.667Z,97901.16
2022-11-24T23:41:17.353Z,97910.88
2022-11-24T23:44:26.834Z,97918.19
2022-11-24T23:47:32.748Z,97916.97
2022-11-24T23:50:39.573Z,97920.41
2022-11-24T23:53:46.761Z,97913.59
2022-11-24T23:56:53.549Z,97916.34
